Weather at Cohuna Airport

Public forecast

Using degrees Celsius for public forecast. Weather courtesy of forecast.io.

Closest aviation weather report (METAR) to Cohuna Airport

Report is more than 6 hours old.

Closest report is Wangaratta Airport, 107.5 nm (199.1 km) ESE. Retrieved 2022/05/27 02:04 UTC (10 hours ago):

YWGT 270204Z AUTO 20003KT 9999 // SCT010 BKN085 OVC105 16/13 Q1017

Closest aviation forecast (TAF) to Cohuna Airport

Forecast is more than 12 hours old.

Closest forecast is Wangaratta Airport, 107.5 nm (199.1 km) ESE. Retrieved 2022/05/11 20:03 UTC (16 days ago):

TAF TAF YWGT 111803Z 1120/1208 16005KT 9999 -RA BKN040 FM120200 12005KT 9999 -RA BKN025 TEMPO 1120/1208 4000 RA SCT015 BKN020